KVKS/VKS METAR and TAF weather

Enter ICAO airport designator
Station Type Date Time Source
KVKS METAR 2022/06/30 14:15 UTC NOAA

KVKS 301415Z AUTO 16004KT 9SM OVC005 26/26 A3011 RMK A01


Station Type Date Time Source
KVKS Decoded METAR 2022/06/30 14:15 UTC NOAA

Vicksburg Municipal, MS, United States (KVKS) 32-14N 090-56W
Jun 30, 2022 - 10:15 AM EDT / 2022.06.30 1415 UTC
Wind: from the SSE (160 degrees) at 5 MPH (4 KT):0
Visibility: 9 mile(s):0
Sky conditions: overcast
Temperature: 78 F (26 C)
Dew Point: 78 F (26 C)
Relative Humidity: 100%
Pressure (altimeter): 30.11 in. Hg (1019 hPa)
ob: KVKS 301415Z AUTO 16004KT 9SM OVC005 26/26 A3011 RMK A01
cycle: 14

Station Type Date Time Source
KVKS TAF UTC NOAA

Error!

Example: see airport list